createdAt,value
2023-01-22T00:01:46.104Z,11.07
2023-01-22T00:04:15.349Z,10.02
2023-01-22T00:06:44.342Z,8.68
2023-01-22T00:09:13.284Z,9.95
2023-01-22T00:11:42.428Z,8.23
2023-01-22T00:14:11.530Z,12.75
2023-01-22T00:16:42.156Z,10.98
2023-01-22T00:19:11.542Z,7.90
2023-01-22T00:21:40.597Z,9.73
2023-01-22T00:24:10.343Z,7.38
2023-01-22T00:26:39.462Z,8.82
2023-01-22T00:29:08.752Z,8.48
2023-01-22T00:31:38.064Z,10.30
2023-01-22T00:34:09.763Z,11.43
2023-01-22T00:36:38.754Z,9.18
2023-01-22T00:39:07.848Z,9.90
2023-01-22T00:41:38.235Z,8.80
2023-01-22T00:44:07.423Z,12.32
2023-01-22T00:46:36.880Z,14.98
2023-01-22T00:49:07.298Z,6.55
2023-01-22T00:51:36.882Z,11.75
2023-01-22T00:54:06.199Z,10.57
2023-01-22T00:56:35.165Z,8.63
2023-01-22T00:59:10.269Z,12.75
2023-01-22T01:04:10.322Z,10.02
2023-01-22T01:06:39.342Z,10.00
2023-01-22T01:09:08.411Z,10.38
2023-01-22T01:11:38.355Z,12.70
2023-01-22T01:14:07.464Z,7.65
2023-01-22T01:16:36.505Z,11.20
2023-01-22T01:19:07.995Z,6.78
2023-01-22T01:21:38.947Z,11.68
2023-01-22T01:24:08.439Z,9.48
2023-01-22T01:26:37.757Z,9.85
2023-01-22T01:29:09.687Z,13.48
2023-01-22T01:31:39.636Z,11.60
2023-01-22T01:34:10.576Z,10.65
2023-01-22T01:36:48.860Z,11.45
2023-01-22T01:39:18.557Z,9.57
2023-01-22T01:41:50.480Z,11.52
2023-01-22T01:44:21.773Z,9.88
2023-01-22T01:46:55.563Z,11.98
2023-01-22T01:49:29.918Z,11.52
2023-01-22T01:52:04.370Z,10.93
2023-01-22T01:54:33.706Z,12.50
2023-01-22T01:57:07.682Z,13.93
2023-01-22T01:59:38.263Z,14.88
2023-01-22T02:02:07.291Z,10.98
2023-01-22T02:04:36.368Z,10.07
2023-01-22T02:07:07.550Z,8.90
2023-01-22T02:09:36.857Z,11.07
2023-01-22T02:12:06.519Z,10.25
2023-01-22T02:14:39.836Z,11.30
2023-01-22T02:17:12.107Z,10.95
2023-01-22T02:19:41.840Z,14.50
2023-01-22T02:22:15.325Z,11.95
2023-01-22T02:24:44.700Z,13.57
2023-01-22T02:27:14.098Z,13.55
2023-01-22T02:29:43.123Z,11.23
2023-01-22T02:32:13.582Z,11.80
2023-01-22T02:34:42.591Z,10.80
2023-01-22T02:37:12.591Z,12.20
2023-01-22T02:39:43.306Z,15.68
2023-01-22T02:42:12.427Z,10.18
2023-01-22T02:44:43.161Z,10.35
2023-01-22T02:47:12.231Z,10.43
2023-01-22T02:49:41.318Z,12.02
2023-01-22T02:52:10.280Z,12.52
2023-01-22T02:54:39.394Z,8.77
2023-01-22T02:57:10.048Z,10.18
2023-01-22T02:59:39.150Z,13.77
2023-01-22T03:02:12.653Z,11.35
2023-01-22T03:04:41.993Z,10.05
2023-01-22T03:07:12.611Z,14.82
2023-01-22T03:09:41.877Z,11.25
2023-01-22T03:12:12.246Z,16.15
2023-01-22T03:14:58.765Z,11.70
2023-01-22T03:17:45.368Z,10.50
2023-01-22T03:20:31.466Z,14.43
2023-01-22T03:23:00.517Z,11.60
2023-01-22T03:25:29.435Z,13.85
2023-01-22T03:28:16.709Z,12.60
2023-01-22T03:30:50.855Z,13.20
2023-01-22T03:33:19.956Z,14.18
2023-01-22T03:35:51.507Z,13.60
2023-01-22T03:38:22.650Z,17.70
2023-01-22T03:40:51.642Z,16.98
2023-01-22T03:43:23.891Z,15.73
2023-01-22T03:45:53.329Z,12.43
2023-01-22T03:48:23.530Z,11.60
2023-01-22T03:50:52.922Z,11.75
2023-01-22T03:53:21.932Z,16.13
2023-01-22T03:55:58.788Z,11.75
2023-01-22T03:58:30.670Z,17.73
2023-01-22T04:01:03.390Z,10.27
2023-01-22T04:03:33.209Z,16.95
2023-01-22T04:06:02.630Z,14.18
2023-01-22T04:08:33.817Z,11.40
2023-01-22T04:11:03.440Z,13.13
2023-01-22T04:13:35.247Z,15.52
2023-01-22T04:16:05.494Z,13.15
2023-01-22T04:18:57.708Z,10.60
2023-01-22T04:21:49.245Z,15.65
2023-01-22T04:24:18.891Z,15.80
2023-01-22T04:26:47.931Z,16.23
2023-01-22T04:29:21.510Z,15.18
2023-01-22T04:31:51.165Z,14.75
2023-01-22T04:34:20.135Z,16.83
2023-01-22T04:37:12.536Z,13.95
2023-01-22T04:39:42.147Z,15.13
2023-01-22T04:42:12.930Z,16.95
2023-01-22T04:44:43.371Z,12.68
2023-01-22T04:47:12.776Z,14.50
2023-01-22T04:49:43.083Z,14.20
2023-01-22T04:52:14.755Z,16.35
2023-01-22T04:54:45.282Z,18.23
2023-01-22T04:57:15.292Z,14.93
2023-01-22T04:59:45.687Z,13.32
2023-01-22T05:02:15.043Z,14.43
2023-01-22T05:04:44.843Z,13.43
2023-01-22T05:07:15.570Z,14.60
2023-01-22T05:09:44.850Z,11.57
2023-01-22T05:12:13.838Z,13.15
2023-01-22T05:14:46.590Z,13.82
2023-01-22T05:17:15.557Z,13.73
2023-01-22T05:19:44.558Z,18.55
2023-01-22T05:22:18.756Z,14.90
2023-01-22T05:24:50.591Z,16.48
2023-01-22T05:27:20.734Z,17.75
2023-01-22T05:30:02.206Z,18.60
2023-01-22T05:32:48.299Z,20.58
2023-01-22T05:35:18.767Z,16.13
2023-01-22T05:37:47.926Z,18.45
2023-01-22T05:40:17.457Z,18.92
2023-01-22T05:42:46.740Z,12.85
2023-01-22T05:45:18.107Z,17.17
2023-01-22T05:48:07.597Z,18.50
2023-01-22T05:50:46.237Z,16.35
2023-01-22T05:53:15.814Z,22.80
2023-01-22T05:55:45.855Z,16.38
2023-01-22T05:58:15.050Z,10.65
2023-01-22T06:00:48.065Z,18.17
2023-01-22T06:03:19.390Z,21.60
2023-01-22T06:05:59.639Z,20.95
2023-01-22T06:08:29.614Z,20.40
2023-01-22T06:11:02.358Z,22.58
2023-01-22T06:13:32.629Z,17.13
2023-01-22T06:16:11.235Z,20.13
2023-01-22T06:19:09.802Z,14.80
2023-01-22T06:21:49.602Z,18.70
2023-01-22T06:24:19.668Z,19.15
2023-01-22T06:26:49.330Z,15.02
2023-01-22T06:29:18.572Z,18.33
2023-01-22T06:31:49.339Z,17.92
2023-01-22T06:34:20.936Z,13.40
2023-01-22T06:36:50.346Z,18.00
2023-01-22T06:39:20.252Z,14.68
2023-01-22T06:42:01.303Z,14.40
2023-01-22T06:44:31.366Z,18.23
2023-01-22T06:47:01.934Z,15.38
2023-01-22T06:49:32.733Z,20.42
2023-01-22T06:52:02.542Z,18.67
2023-01-22T06:54:32.413Z,13.95
2023-01-22T06:57:01.765Z,14.48
2023-01-22T06:59:30.793Z,18.92
2023-01-22T07:01:59.838Z,16.20
2023-01-22T07:04:30.368Z,21.25
2023-01-22T07:06:59.374Z,17.67
2023-01-22T07:09:28.418Z,19.67
2023-01-22T07:12:00.580Z,17.40
2023-01-22T07:14:36.948Z,17.13
2023-01-22T07:17:06.626Z,21.70
2023-01-22T07:19:37.151Z,17.25
2023-01-22T07:22:06.217Z,20.83
2023-01-22T07:24:35.368Z,13.13
2023-01-22T07:27:04.482Z,19.00
2023-01-22T07:29:33.467Z,21.83
2023-01-22T07:32:02.463Z,26.73
2023-01-22T07:34:31.447Z,26.05
2023-01-22T07:37:04.000Z,18.00
2023-01-22T07:39:33.024Z,18.77
2023-01-22T07:42:02.159Z,20.15
2023-01-22T07:44:33.059Z,25.17
2023-01-22T07:47:02.064Z,20.98
2023-01-22T07:49:31.047Z,17.70
2023-01-22T07:52:01.690Z,20.55
2023-01-22T07:54:30.713Z,15.13
2023-01-22T07:56:59.767Z,17.30
2023-01-22T07:59:28.924Z,20.35
2023-01-22T08:01:58.327Z,18.77
2023-01-22T08:04:27.621Z,21.88
2023-01-22T08:06:56.757Z,20.08
2023-01-22T08:09:27.171Z,20.50
2023-01-22T08:11:56.208Z,24.73
2023-01-22T08:14:25.348Z,20.27
2023-01-22T08:16:54.318Z,18.10
2023-01-22T08:19:23.369Z,21.85
2023-01-22T08:21:52.337Z,18.83
2023-01-22T08:24:21.433Z,18.52
2023-01-22T08:26:51.987Z,17.80
2023-01-22T08:29:21.148Z,20.00
2023-01-22T08:31:50.629Z,24.48
2023-01-22T08:34:19.810Z,21.83
2023-01-22T08:36:49.337Z,23.98
2023-01-22T08:39:18.362Z,18.95
2023-01-22T08:41:47.388Z,19.13
2023-01-22T08:44:18.083Z,26.85
2023-01-22T08:46:47.084Z,21.83
2023-01-22T08:49:16.251Z,22.33
2023-01-22T08:51:45.635Z,21.30
2023-01-22T08:54:14.738Z,22.73
2023-01-22T08:56:43.710Z,20.70
2023-01-22T08:59:12.693Z,19.00
2023-01-22T09:01:43.459Z,22.75
2023-01-22T09:04:12.914Z,22.58
2023-01-22T09:06:41.903Z,20.60
2023-01-22T09:09:10.898Z,23.58
2023-01-22T09:11:40.080Z,25.83
2023-01-22T09:14:10.277Z,24.60
2023-01-22T09:16:39.344Z,22.52
2023-01-22T09:19:09.942Z,25.52
2023-01-22T09:21:39.173Z,21.70
2023-01-22T09:24:08.924Z,26.45
2023-01-22T09:26:38.343Z,20.58
2023-01-22T09:29:07.439Z,24.17
2023-01-22T09:31:37.808Z,19.88
2023-01-22T09:34:07.069Z,19.33
2023-01-22T09:36:37.481Z,21.83
2023-01-22T09:39:06.500Z,26.65
2023-01-22T09:41:38.225Z,20.63
2023-01-22T09:44:12.676Z,22.77
2023-01-22T09:46:47.579Z,23.35
2023-01-22T09:49:18.567Z,21.70
2023-01-22T09:51:53.920Z,26.33
2023-01-22T09:54:26.193Z,20.83
2023-01-22T09:56:58.199Z,26.17
2023-01-22T09:59:29.504Z,22.98
2023-01-22T10:02:02.905Z,21.60
2023-01-22T10:04:38.278Z,26.40
2023-01-22T10:07:14.071Z,20.05
2023-01-22T10:09:51.066Z,25.83
2023-01-22T10:12:20.367Z,22.67
2023-01-22T10:17:24.383Z,25.30
2023-01-22T10:19:57.280Z,26.67
2023-01-22T10:22:28.981Z,21.85
2023-01-22T10:24:58.675Z,29.98
2023-01-22T10:27:36.644Z,26.20
2023-01-22T10:30:17.314Z,22.60
2023-01-22T10:32:46.527Z,23.30
2023-01-22T10:35:19.951Z,21.85
2023-01-22T10:37:52.732Z,28.92
2023-01-22T10:40:24.950Z,26.10
2023-01-22T10:43:06.693Z,26.33
2023-01-22T10:45:35.854Z,34.53
2023-01-22T10:48:06.798Z,25.30
2023-01-22T10:50:35.874Z,23.08
2023-01-22T10:53:14.677Z,25.77
2023-01-22T10:55:44.120Z,25.98
2023-01-22T10:58:19.111Z,19.85
2023-01-22T11:00:58.652Z,22.85
2023-01-22T11:03:33.599Z,26.88
2023-01-22T11:06:12.676Z,23.75
2023-01-22T11:08:55.179Z,25.13
2023-01-22T11:11:32.085Z,25.88
2023-01-22T11:14:04.857Z,23.92
2023-01-22T11:16:37.452Z,21.80
2023-01-22T11:19:11.008Z,25.88
2023-01-22T11:21:45.717Z,24.42
2023-01-22T11:24:22.700Z,26.35
2023-01-22T11:27:08.018Z,26.30
2023-01-22T11:30:02.987Z,29.73
2023-01-22T11:33:00.548Z,25.48
2023-01-22T11:35:35.564Z,32.05
2023-01-22T11:38:17.100Z,25.23
2023-01-22T11:41:03.035Z,27.10
2023-01-22T11:43:55.881Z,27.17
2023-01-22T11:46:37.312Z,27.98
2023-01-22T11:49:14.841Z,24.00
2023-01-22T11:51:57.940Z,21.08
2023-01-22T11:54:55.345Z,24.95
2023-01-22T11:57:32.958Z,24.95
2023-01-22T12:00:27.227Z,24.15
2023-01-22T12:03:28.866Z,26.50
2023-01-22T12:06:13.092Z,27.73
2023-01-22T12:08:53.537Z,23.75
2023-01-22T12:11:35.016Z,22.40
2023-01-22T12:14:36.521Z,26.15
2023-01-22T12:17:19.547Z,20.10
2023-01-22T12:20:04.932Z,24.35
2023-01-22T12:22:39.350Z,26.00
2023-01-22T12:25:17.742Z,19.63
2023-01-22T12:27:52.641Z,23.02
2023-01-22T12:30:25.385Z,24.17
2023-01-22T12:33:00.171Z,24.90
2023-01-22T12:35:31.916Z,30.05
2023-01-22T12:38:15.160Z,26.45
2023-01-22T12:41:03.393Z,26.90
2023-01-22T12:43:45.104Z,23.00
2023-01-22T12:46:23.204Z,24.60
2023-01-22T12:49:03.016Z,23.40
2023-01-22T12:51:39.393Z,23.33
2023-01-22T12:54:22.715Z,22.15
2023-01-22T12:56:56.626Z,23.95
2023-01-22T12:59:34.202Z,21.75
2023-01-22T13:02:04.779Z,23.27
2023-01-22T13:04:35.363Z,21.35
2023-01-22T13:07:06.396Z,27.42
2023-01-22T13:09:38.369Z,25.27
2023-01-22T13:12:11.317Z,25.27
2023-01-22T13:14:43.656Z,26.70
2023-01-22T13:17:21.074Z,24.85
2023-01-22T13:19:52.637Z,24.17
2023-01-22T13:22:24.230Z,28.98
2023-01-22T13:24:55.222Z,26.88
2023-01-22T13:27:27.307Z,24.10
2023-01-22T13:30:08.755Z,26.60
2023-01-22T13:32:37.896Z,24.13
2023-01-22T13:35:09.508Z,25.98
2023-01-22T13:37:39.056Z,28.65
2023-01-22T13:40:24.865Z,31.70
2023-01-22T13:42:55.736Z,23.70
2023-01-22T13:45:27.520Z,28.60
2023-01-22T13:47:59.480Z,28.70
2023-01-22T13:50:31.820Z,27.20
2023-01-22T13:53:03.306Z,31.52
2023-01-22T13:55:32.824Z,26.83
2023-01-22T13:58:04.548Z,23.50
2023-01-22T14:00:35.701Z,23.25
2023-01-22T14:03:19.968Z,22.90
2023-01-22T14:05:50.510Z,21.92
2023-01-22T14:08:19.518Z,26.33
2023-01-22T14:10:58.104Z,28.73
2023-01-22T14:13:27.607Z,28.08
2023-01-22T14:15:59.641Z,27.17
2023-01-22T14:18:30.200Z,24.70
2023-01-22T14:21:00.779Z,26.70
2023-01-22T14:23:30.261Z,18.80
2023-01-22T14:26:00.194Z,23.60
2023-01-22T14:28:31.345Z,27.60
2023-01-22T14:31:00.423Z,30.05
2023-01-22T14:33:31.595Z,31.73
2023-01-22T14:36:02.315Z,25.58
2023-01-22T14:38:31.384Z,22.73
2023-01-22T14:41:00.390Z,24.17
2023-01-22T14:43:29.461Z,24.45
2023-01-22T14:45:58.611Z,27.20
2023-01-22T14:48:27.619Z,26.00
2023-01-22T14:50:56.743Z,22.90
2023-01-22T14:53:27.145Z,23.48
2023-01-22T14:55:56.276Z,27.38
2023-01-22T14:58:25.200Z,26.70
2023-01-22T15:00:54.268Z,20.38
2023-01-22T15:03:23.253Z,22.42
2023-01-22T15:05:53.093Z,24.48
2023-01-22T15:08:22.243Z,23.02
2023-01-22T15:10:52.785Z,26.58
2023-01-22T15:13:21.979Z,24.73
2023-01-22T15:15:51.047Z,22.55
2023-01-22T15:18:20.217Z,22.60
2023-01-22T15:20:49.414Z,23.85
2023-01-22T15:23:18.477Z,23.60
2023-01-22T15:25:57.753Z,23.08
2023-01-22T15:28:26.757Z,23.48
2023-01-22T15:30:56.894Z,24.40
2023-01-22T15:33:26.210Z,26.35
2023-01-22T15:35:55.275Z,22.67
2023-01-22T15:38:24.349Z,35.00
2023-01-22T15:41:04.983Z,23.08
2023-01-22T15:43:34.642Z,25.45
2023-01-22T15:46:03.668Z,28.60
2023-01-22T15:48:32.803Z,27.30
2023-01-22T15:51:08.996Z,23.90
2023-01-22T15:53:38.845Z,22.70
2023-01-22T15:56:09.768Z,25.55
2023-01-22T15:58:38.809Z,26.75
2023-01-22T16:01:07.861Z,24.67
2023-01-22T16:03:37.002Z,29.08
2023-01-22T16:06:10.302Z,27.23
2023-01-22T16:08:40.080Z,22.27
2023-01-22T16:11:10.937Z,27.83
2023-01-22T16:13:39.971Z,28.88
2023-01-22T16:16:15.113Z,25.88
2023-01-22T16:21:14.776Z,28.23
2023-01-22T16:23:45.978Z,29.55
2023-01-22T16:26:18.331Z,31.35
2023-01-22T16:28:49.637Z,29.42
2023-01-22T16:31:21.328Z,27.02
2023-01-22T16:33:54.015Z,30.80
2023-01-22T16:36:25.591Z,25.02
2023-01-22T16:38:54.944Z,29.67
2023-01-22T16:41:28.729Z,28.80
2023-01-22T16:44:01.008Z,28.10
2023-01-22T16:46:32.173Z,33.50
2023-01-22T16:49:03.420Z,24.10
2023-01-22T16:51:36.645Z,38.78
2023-01-22T16:54:07.027Z,30.73
2023-01-22T16:56:37.544Z,32.38
2023-01-22T16:59:06.708Z,32.17
2023-01-22T17:01:37.072Z,29.65
2023-01-22T17:04:07.503Z,40.35
2023-01-22T17:06:41.059Z,39.40
2023-01-22T17:09:15.512Z,38.67
2023-01-22T17:11:47.322Z,34.83
2023-01-22T17:14:20.499Z,32.08
2023-01-22T17:16:50.386Z,34.63
2023-01-22T17:19:20.234Z,37.72
2023-01-22T17:21:52.019Z,33.22
2023-01-22T17:24:22.363Z,30.42
2023-01-22T17:26:53.438Z,37.75
2023-01-22T17:29:23.241Z,31.40
2023-01-22T17:31:52.586Z,33.75
2023-01-22T17:34:22.643Z,34.08
2023-01-22T17:36:51.816Z,26.15
2023-01-22T17:39:21.375Z,37.90
2023-01-22T17:41:50.442Z,32.05
2023-01-22T17:44:21.212Z,38.58
2023-01-22T17:46:54.868Z,37.35
2023-01-22T17:49:23.877Z,31.85
2023-01-22T17:51:53.272Z,36.55
2023-01-22T17:54:22.352Z,27.13
2023-01-22T17:56:53.404Z,31.15
2023-01-22T17:59:25.452Z,33.45
2023-01-22T18:01:54.954Z,30.38
2023-01-22T18:04:24.204Z,28.70
2023-01-22T18:06:54.172Z,28.98
2023-01-22T18:09:23.339Z,38.65
2023-01-22T18:11:52.347Z,34.78
2023-01-22T18:14:23.071Z,35.67
2023-01-22T18:16:53.615Z,35.75
2023-01-22T18:19:23.668Z,34.85
2023-01-22T18:21:53.464Z,27.42
2023-01-22T18:24:24.561Z,30.80
2023-01-22T18:26:55.040Z,31.45
2023-01-22T18:29:24.282Z,32.85
2023-01-22T18:31:55.342Z,25.30
2023-01-22T18:34:24.645Z,25.83
2023-01-22T18:36:53.989Z,34.58
2023-01-22T18:39:23.582Z,28.02
2023-01-22T18:41:53.414Z,27.38
2023-01-22T18:44:27.633Z,27.17
2023-01-22T18:47:00.168Z,25.77
2023-01-22T18:49:29.917Z,27.38
2023-01-22T18:52:01.112Z,28.30
2023-01-22T18:54:30.350Z,25.42
2023-01-22T18:56:59.559Z,26.15
2023-01-22T18:59:28.904Z,30.25
2023-01-22T19:02:00.222Z,26.30
2023-01-22T19:04:30.610Z,21.10
2023-01-22T19:07:01.045Z,27.27
2023-01-22T19:09:31.906Z,25.83
2023-01-22T19:12:00.985Z,24.80
2023-01-22T19:14:30.166Z,22.10
2023-01-22T19:17:00.848Z,22.88
2023-01-22T19:19:30.030Z,22.70
2023-01-22T19:21:59.379Z,20.63
2023-01-22T19:24:28.791Z,25.33
2023-01-22T19:26:58.772Z,22.45
2023-01-22T19:29:28.374Z,22.38
2023-01-22T19:31:58.459Z,22.83
2023-01-22T19:34:30.523Z,23.52
2023-01-22T19:37:02.706Z,24.70
2023-01-22T19:39:32.244Z,30.13
2023-01-22T19:42:02.433Z,23.27
2023-01-22T19:44:32.792Z,26.33
2023-01-22T19:47:02.628Z,24.67
2023-01-22T19:49:33.344Z,19.50
2023-01-22T19:52:02.385Z,21.50
2023-01-22T19:54:31.676Z,26.92
2023-01-22T19:57:00.686Z,25.95
2023-01-22T19:59:29.830Z,30.77
2023-01-22T20:01:58.862Z,23.58
2023-01-22T20:04:31.902Z,27.23
2023-01-22T20:07:05.763Z,29.73
2023-01-22T20:09:36.384Z,23.50
2023-01-22T20:12:06.785Z,25.45
2023-01-22T20:14:39.218Z,23.70
2023-01-22T20:17:08.315Z,28.83
2023-01-22T20:19:38.338Z,27.52
2023-01-22T20:22:10.923Z,26.40
2023-01-22T20:24:41.839Z,29.30
2023-01-22T20:27:11.984Z,29.60
2023-01-22T20:29:41.563Z,24.50
2023-01-22T20:32:10.576Z,27.55
2023-01-22T20:34:42.169Z,27.77
2023-01-22T20:37:12.585Z,33.70
2023-01-22T20:39:41.543Z,30.30
2023-01-22T20:42:10.713Z,23.88
2023-01-22T20:44:39.769Z,22.02
2023-01-22T20:47:08.943Z,27.52
2023-01-22T20:49:37.892Z,30.77
2023-01-22T20:52:07.491Z,25.65
2023-01-22T20:54:54.835Z,28.15
2023-01-22T20:57:24.156Z,29.23
2023-01-22T20:59:53.185Z,25.73
2023-01-22T21:02:22.468Z,29.25
2023-01-22T21:04:53.003Z,24.38
2023-01-22T21:07:22.037Z,28.52
2023-01-22T21:09:52.592Z,26.17
2023-01-22T21:12:21.555Z,29.75
2023-01-22T21:14:54.646Z,29.25
2023-01-22T21:17:23.639Z,27.75
2023-01-22T21:19:52.795Z,23.58
2023-01-22T21:22:21.776Z,26.88
2023-01-22T21:24:52.389Z,24.92
2023-01-22T21:27:21.419Z,35.33
2023-01-22T21:29:52.121Z,30.42
2023-01-22T21:32:21.155Z,29.10
2023-01-22T21:34:50.193Z,25.40
2023-01-22T21:37:19.198Z,32.90
2023-01-22T21:39:48.291Z,31.77
2023-01-22T21:42:36.440Z,27.83
2023-01-22T21:45:24.142Z,33.80
2023-01-22T21:47:53.391Z,35.42
2023-01-22T21:50:23.358Z,42.00
2023-01-22T21:52:54.597Z,37.63
2023-01-22T21:55:23.717Z,35.50
2023-01-22T21:57:54.131Z,40.47
2023-01-22T22:00:23.317Z,29.98
2023-01-22T22:02:53.577Z,35.53
2023-01-22T22:05:23.007Z,39.42
2023-01-22T22:07:52.123Z,36.95
2023-01-22T22:10:21.499Z,39.55
2023-01-22T22:12:50.618Z,39.83
2023-01-22T22:15:21.179Z,45.08
2023-01-22T22:17:50.187Z,43.35
2023-01-22T22:20:19.644Z,38.85
2023-01-22T22:22:48.879Z,41.72
2023-01-22T22:25:18.079Z,46.80
2023-01-22T22:27:47.031Z,45.47
2023-01-22T22:30:16.651Z,38.55
2023-01-22T22:32:47.116Z,38.83
2023-01-22T22:35:16.248Z,41.88
2023-01-22T22:37:45.346Z,39.50
2023-01-22T22:40:14.888Z,41.75
2023-01-22T22:42:44.028Z,35.35
2023-01-22T22:45:13.027Z,44.58
2023-01-22T22:47:42.216Z,34.58
2023-01-22T22:50:13.397Z,37.03
2023-01-22T22:52:43.607Z,42.45
2023-01-22T22:55:12.622Z,34.83
2023-01-22T22:57:41.530Z,34.13
2023-01-22T23:00:13.387Z,39.70
2023-01-22T23:02:42.821Z,38.65
2023-01-22T23:05:13.282Z,41.53
2023-01-22T23:07:42.305Z,35.83
2023-01-22T23:10:28.830Z,37.10
2023-01-22T23:13:00.100Z,28.23
2023-01-22T23:15:30.790Z,35.67
2023-01-22T23:18:00.865Z,37.83
2023-01-22T23:20:31.499Z,31.05
2023-01-22T23:23:00.658Z,26.63
2023-01-22T23:25:29.792Z,23.73
2023-01-22T23:27:58.757Z,25.20
2023-01-22T23:30:27.692Z,27.08
2023-01-22T23:32:56.611Z,21.88
2023-01-22T23:35:25.579Z,23.35
2023-01-22T23:37:55.968Z,25.67
2023-01-22T23:40:24.971Z,25.83
2023-01-22T23:42:54.045Z,27.33
2023-01-22T23:45:23.027Z,23.30
2023-01-22T23:47:53.587Z,27.88
2023-01-22T23:50:22.766Z,22.83
2023-01-22T23:52:51.759Z,29.02
2023-01-22T23:55:22.164Z,29.33
2023-01-22T23:57:51.064Z,29.00
